createdAt,value
2019-03-28T00:00:10.996Z,11.00
2019-03-28T00:02:38.957Z,10.82
2019-03-28T00:05:07.871Z,11.22
2019-03-28T00:07:36.110Z,10.60
2019-03-28T00:10:04.707Z,10.68
2019-03-28T00:12:32.808Z,11.22
2019-03-28T00:15:00.780Z,10.70
2019-03-28T00:17:28.728Z,10.63
2019-03-28T00:19:56.905Z,11.12
2019-03-28T00:22:34.660Z,11.53
2019-03-28T00:27:33.740Z,10.60
2019-03-28T00:30:01.731Z,11.22
2019-03-28T00:32:29.724Z,11.35
2019-03-28T00:34:57.814Z,11.35
2019-03-28T00:37:25.991Z,11.18
2019-03-28T00:39:54.185Z,11.53
2019-03-28T00:42:22.264Z,11.18
2019-03-28T00:44:50.335Z,12.40
2019-03-28T00:47:18.339Z,11.40
2019-03-28T00:49:46.306Z,11.33
2019-03-28T00:52:14.284Z,11.18
2019-03-28T00:54:42.260Z,11.40
2019-03-28T00:57:10.226Z,12.03
2019-03-28T00:59:38.183Z,11.97
2019-03-28T01:02:06.387Z,12.75
2019-03-28T01:04:34.370Z,12.78
2019-03-28T01:07:02.371Z,12.43
2019-03-28T01:09:31.301Z,12.70
2019-03-28T01:11:59.457Z,13.08
2019-03-28T01:14:27.473Z,13.05
2019-03-28T01:16:55.281Z,13.13
2019-03-28T01:19:23.263Z,13.55
2019-03-28T01:21:51.247Z,13.35
2019-03-28T01:24:19.276Z,13.32
2019-03-28T01:26:56.587Z,13.45
2019-03-28T01:29:17.038Z,13.88
2019-03-28T01:31:45.003Z,13.45
2019-03-28T01:34:12.976Z,14.05
2019-03-28T01:36:40.849Z,14.58
2019-03-28T01:39:08.858Z,15.15
2019-03-28T01:41:36.708Z,16.12
2019-03-28T01:44:04.682Z,16.25
2019-03-28T01:46:32.674Z,16.20
2019-03-28T01:49:03.603Z,16.30
2019-03-28T01:51:31.168Z,16.52
2019-03-28T01:53:59.213Z,16.87
2019-03-28T01:56:27.168Z,16.45
2019-03-28T01:58:55.245Z,19.52
2019-03-28T02:01:23.529Z,19.85
2019-03-28T02:03:51.497Z,18.23
2019-03-28T02:06:19.628Z,19.27
2019-03-28T02:08:47.801Z,18.98
2019-03-28T02:11:15.768Z,20.50
2019-03-28T02:13:43.944Z,20.75
2019-03-28T02:16:11.937Z,21.52
2019-03-28T02:18:39.924Z,20.52
2019-03-28T02:21:09.637Z,20.37
2019-03-28T02:23:37.666Z,21.23
2019-03-28T02:26:05.744Z,21.07
2019-03-28T02:28:33.872Z,20.10
2019-03-28T02:31:01.882Z,20.12
2019-03-28T02:33:29.951Z,20.55
2019-03-28T02:35:58.046Z,20.23
2019-03-28T02:38:26.211Z,20.80
2019-03-28T02:40:54.473Z,20.52
2019-03-28T02:43:22.470Z,21.52
2019-03-28T02:45:50.461Z,21.97
2019-03-28T02:48:18.535Z,22.15
2019-03-28T02:50:46.512Z,22.60
2019-03-28T02:53:14.492Z,20.92
2019-03-28T02:55:42.585Z,21.48
2019-03-28T02:58:10.899Z,22.35
2019-03-28T03:00:39.121Z,21.68
2019-03-28T03:03:07.106Z,21.65
2019-03-28T03:05:35.089Z,21.35
2019-03-28T03:08:03.064Z,20.88
2019-03-28T03:10:31.262Z,22.73
2019-03-28T03:12:59.333Z,20.65
2019-03-28T03:15:27.323Z,21.02
2019-03-28T03:17:55.372Z,21.27
2019-03-28T03:20:23.583Z,21.25
2019-03-28T03:22:51.647Z,20.57
2019-03-28T03:25:19.807Z,22.27
2019-03-28T03:27:57.524Z,21.45
2019-03-28T03:30:18.132Z,21.12
2019-03-28T03:32:46.193Z,21.20
2019-03-28T03:35:14.382Z,21.70
2019-03-28T03:37:42.442Z,20.68
2019-03-28T03:40:11.524Z,22.22
2019-03-28T03:42:39.599Z,22.15
2019-03-28T03:45:09.017Z,21.40
2019-03-28T03:47:37.553Z,22.00
2019-03-28T03:50:07.073Z,22.35
2019-03-28T03:52:35.119Z,21.87
2019-03-28T03:55:03.459Z,22.52
2019-03-28T03:57:31.534Z,22.75
2019-03-28T03:59:59.594Z,23.02
2019-03-28T04:02:27.654Z,22.10
2019-03-28T04:04:56.860Z,22.52
2019-03-28T04:07:25.125Z,22.52
2019-03-28T04:09:53.117Z,23.65
2019-03-28T04:12:21.077Z,22.58
2019-03-28T04:14:49.052Z,22.52
2019-03-28T04:17:17.048Z,22.50
2019-03-28T04:19:45.108Z,22.82
2019-03-28T04:22:13.094Z,23.30
2019-03-28T04:24:40.998Z,21.93
2019-03-28T04:27:09.001Z,23.35
2019-03-28T04:29:36.943Z,22.15
2019-03-28T04:32:04.810Z,22.00
2019-03-28T04:34:32.787Z,22.65
2019-03-28T04:37:00.784Z,21.80
2019-03-28T04:39:28.758Z,23.27
2019-03-28T04:41:56.720Z,24.10
2019-03-28T04:44:24.735Z,24.37
2019-03-28T04:46:52.709Z,23.87
2019-03-28T04:49:20.689Z,23.80
2019-03-28T04:51:48.746Z,23.22
2019-03-28T04:54:16.687Z,23.62
2019-03-28T04:56:44.748Z,23.87
2019-03-28T04:59:12.752Z,22.67
2019-03-28T05:01:40.709Z,23.42
2019-03-28T05:04:08.715Z,23.92
2019-03-28T05:06:37.966Z,24.60
2019-03-28T05:09:06.167Z,23.02
2019-03-28T05:11:34.145Z,23.20
2019-03-28T05:14:02.121Z,22.98
2019-03-28T05:16:30.097Z,22.35
2019-03-28T05:18:58.185Z,23.47
2019-03-28T05:21:26.160Z,24.80
2019-03-28T05:23:54.236Z,26.12
2019-03-28T05:26:22.199Z,24.85
2019-03-28T05:28:57.354Z,24.80
2019-03-28T05:31:20.162Z,24.63
2019-03-28T05:33:48.228Z,25.08
2019-03-28T05:36:16.239Z,24.77
2019-03-28T05:38:44.185Z,25.65
2019-03-28T05:41:12.137Z,26.62
2019-03-28T05:43:40.513Z,25.65
2019-03-28T05:46:08.474Z,24.98
2019-03-28T05:48:36.448Z,26.07
2019-03-28T05:51:04.549Z,26.73
2019-03-28T05:53:32.617Z,26.73
2019-03-28T05:56:00.604Z,27.13
2019-03-28T05:58:28.596Z,27.73
2019-03-28T06:00:56.552Z,26.02
2019-03-28T06:03:24.528Z,27.17
2019-03-28T06:05:52.454Z,26.62
2019-03-28T06:08:20.381Z,27.27
2019-03-28T06:10:48.528Z,26.75
2019-03-28T06:13:16.508Z,27.87
2019-03-28T06:15:44.407Z,27.37
2019-03-28T06:18:12.373Z,26.97
2019-03-28T06:20:40.350Z,27.42
2019-03-28T06:23:08.334Z,26.90
2019-03-28T06:25:36.302Z,26.82
2019-03-28T06:28:04.305Z,27.77
2019-03-28T06:30:32.284Z,26.87
2019-03-28T06:33:00.256Z,27.65
2019-03-28T06:35:28.259Z,26.55
2019-03-28T06:37:56.218Z,26.95
2019-03-28T06:40:24.176Z,28.47
2019-03-28T06:42:52.145Z,28.50
2019-03-28T06:45:20.126Z,27.40
2019-03-28T06:47:48.125Z,28.00
2019-03-28T06:50:16.204Z,27.67
2019-03-28T06:52:44.187Z,27.70
2019-03-28T06:55:12.248Z,29.23
2019-03-28T06:57:40.229Z,27.55
2019-03-28T07:00:09.352Z,27.32
2019-03-28T07:02:37.360Z,27.80
2019-03-28T07:05:05.686Z,26.02
2019-03-28T07:07:33.658Z,28.65
2019-03-28T07:10:02.597Z,27.55
2019-03-28T07:12:30.937Z,27.62
2019-03-28T07:14:59.765Z,27.42
2019-03-28T07:17:27.796Z,25.57
2019-03-28T07:19:55.797Z,26.52
2019-03-28T07:22:23.756Z,26.20
2019-03-28T07:24:51.727Z,26.00
2019-03-28T07:27:19.769Z,27.82
2019-03-28T07:29:51.111Z,27.27
2019-03-28T07:32:17.697Z,27.60
2019-03-28T07:34:45.700Z,26.07
2019-03-28T07:37:13.760Z,26.02
2019-03-28T07:39:41.832Z,28.40
2019-03-28T07:42:09.832Z,27.52
2019-03-28T07:44:37.809Z,27.22
2019-03-28T07:47:05.800Z,25.65
2019-03-28T07:49:33.750Z,28.55
2019-03-28T07:52:01.738Z,26.80
2019-03-28T07:54:29.681Z,27.85
2019-03-28T07:56:57.644Z,27.45
2019-03-28T07:59:25.628Z,26.52
2019-03-28T08:01:53.596Z,27.30
2019-03-28T08:04:21.564Z,29.20
2019-03-28T08:06:50.520Z,28.92
2019-03-28T08:09:19.704Z,29.02
2019-03-28T08:11:48.410Z,28.35
2019-03-28T08:14:16.446Z,28.62
2019-03-28T08:16:44.374Z,29.25
2019-03-28T08:19:12.210Z,28.30
2019-03-28T08:21:40.077Z,28.98
2019-03-28T08:24:07.903Z,28.50
2019-03-28T08:26:35.872Z,29.42
2019-03-28T08:29:03.851Z,28.07
2019-03-28T08:31:32.107Z,29.82
2019-03-28T08:34:01.870Z,28.40
2019-03-28T08:36:29.857Z,27.98
2019-03-28T08:38:57.946Z,28.17
2019-03-28T08:41:25.906Z,29.15
2019-03-28T08:43:53.874Z,29.35
2019-03-28T08:46:21.761Z,28.77
2019-03-28T08:48:49.882Z,27.62
2019-03-28T08:51:17.971Z,30.50
2019-03-28T08:53:45.975Z,30.05
2019-03-28T08:56:13.941Z,28.67
2019-03-28T08:58:41.935Z,27.80
2019-03-28T09:01:09.909Z,27.00
2019-03-28T09:03:38.078Z,28.52
2019-03-28T09:06:06.183Z,27.22
2019-03-28T09:08:34.144Z,26.90
2019-03-28T09:11:02.280Z,26.80
2019-03-28T09:13:30.242Z,25.05
2019-03-28T09:15:58.220Z,25.72
2019-03-28T09:18:26.292Z,25.25
2019-03-28T09:20:54.268Z,24.72
2019-03-28T09:23:22.322Z,23.47
2019-03-28T09:25:50.333Z,23.55
2019-03-28T09:28:18.344Z,23.92
2019-03-28T09:30:49.138Z,22.70
2019-03-28T09:33:16.116Z,23.00
2019-03-28T09:35:44.153Z,22.75
2019-03-28T09:38:12.193Z,21.73
2019-03-28T09:40:40.766Z,21.60
2019-03-28T09:43:08.749Z,19.55
2019-03-28T09:45:37.332Z,17.95
2019-03-28T09:48:05.527Z,18.05
2019-03-28T09:50:34.007Z,18.30
2019-03-28T09:53:02.733Z,19.67
2019-03-28T09:55:30.709Z,19.90
2019-03-28T09:57:58.664Z,19.10
2019-03-28T10:00:26.688Z,18.50
2019-03-28T10:02:54.659Z,17.92
2019-03-28T10:05:22.699Z,17.27
2019-03-28T10:07:50.716Z,17.90
2019-03-28T10:10:18.793Z,17.35
2019-03-28T10:12:46.783Z,16.27
2019-03-28T10:15:15.072Z,16.37
2019-03-28T10:17:43.087Z,20.43
2019-03-28T10:20:11.865Z,21.55
2019-03-28T10:22:39.934Z,24.77
2019-03-28T10:25:08.164Z,22.52
2019-03-28T10:27:36.938Z,23.10
2019-03-28T10:30:05.703Z,21.77
2019-03-28T10:32:33.792Z,21.10
2019-03-28T10:35:02.290Z,21.33
2019-03-28T10:37:30.269Z,18.15
2019-03-28T10:39:58.274Z,16.73
2019-03-28T10:42:26.145Z,15.53
2019-03-28T10:44:54.126Z,15.45
2019-03-28T10:47:22.208Z,18.00
2019-03-28T10:49:50.208Z,18.62
2019-03-28T10:52:18.353Z,18.32
2019-03-28T10:54:46.341Z,18.35
2019-03-28T10:57:28.867Z,16.95
2019-03-28T10:59:44.181Z,16.32
2019-03-28T11:02:12.642Z,16.87
2019-03-28T11:04:40.688Z,17.25
2019-03-28T11:07:08.652Z,16.10
2019-03-28T11:09:36.647Z,16.15
2019-03-28T11:12:04.729Z,17.30
2019-03-28T11:14:32.634Z,14.90
2019-03-28T11:17:00.634Z,15.83
2019-03-28T11:19:28.481Z,15.45
2019-03-28T11:21:56.399Z,15.05
2019-03-28T11:24:24.396Z,14.00
2019-03-28T11:26:52.385Z,12.47
2019-03-28T11:29:20.345Z,12.98
2019-03-28T11:31:52.201Z,12.88
2019-03-28T11:34:18.260Z,12.60
2019-03-28T11:36:46.249Z,12.55
2019-03-28T11:39:14.257Z,14.30
2019-03-28T11:41:42.217Z,15.05
2019-03-28T11:44:10.222Z,14.87
2019-03-28T11:46:38.181Z,14.93
2019-03-28T11:49:06.554Z,15.60
2019-03-28T11:51:36.219Z,13.72
2019-03-28T11:54:04.486Z,14.98
2019-03-28T11:56:32.436Z,16.02
2019-03-28T11:59:00.425Z,16.48
2019-03-28T12:01:28.422Z,16.85
2019-03-28T12:03:56.381Z,16.10
2019-03-28T12:06:24.339Z,17.07
2019-03-28T12:08:52.337Z,17.42
2019-03-28T12:11:20.432Z,16.95
2019-03-28T12:13:48.404Z,18.55
2019-03-28T12:16:17.008Z,17.40
2019-03-28T12:18:45.127Z,17.85
2019-03-28T12:21:13.382Z,18.02
2019-03-28T12:23:41.351Z,15.93
2019-03-28T12:26:09.341Z,15.03
2019-03-28T12:28:37.329Z,12.03
2019-03-28T12:31:05.408Z,14.55
2019-03-28T12:33:33.400Z,16.40
2019-03-28T12:36:01.389Z,17.42
2019-03-28T12:38:29.244Z,17.30
2019-03-28T12:40:57.237Z,18.00
2019-03-28T12:43:25.216Z,15.53
2019-03-28T12:45:53.321Z,16.17
2019-03-28T12:48:21.383Z,12.45
2019-03-28T12:50:58.665Z,11.75
2019-03-28T12:53:19.385Z,12.53
2019-03-28T12:55:47.354Z,12.88
2019-03-28T12:58:15.341Z,11.22
2019-03-28T13:00:43.333Z,13.35
2019-03-28T13:03:11.294Z,14.43
2019-03-28T13:05:39.155Z,14.85
2019-03-28T13:08:07.242Z,15.88
2019-03-28T13:10:35.360Z,16.17
2019-03-28T13:13:03.953Z,16.30
2019-03-28T13:15:32.179Z,16.90
2019-03-28T13:18:00.145Z,15.50
2019-03-28T13:20:28.113Z,15.83
2019-03-28T13:22:56.109Z,15.63
2019-03-28T13:25:24.215Z,16.27
2019-03-28T13:27:52.295Z,15.85
2019-03-28T13:30:20.425Z,16.30
2019-03-28T13:32:48.548Z,15.80
2019-03-28T13:35:16.528Z,14.45
2019-03-28T13:37:44.505Z,15.58
2019-03-28T13:40:12.795Z,15.60
2019-03-28T13:42:40.760Z,16.20
2019-03-28T13:45:09.361Z,16.30
2019-03-28T13:47:37.444Z,14.45
2019-03-28T13:50:07.120Z,13.60
2019-03-28T13:52:35.211Z,13.88
2019-03-28T13:55:03.488Z,14.43
2019-03-28T13:57:31.457Z,15.90
2019-03-28T13:59:59.452Z,14.63
2019-03-28T14:02:27.513Z,15.60
2019-03-28T14:04:55.585Z,13.20
2019-03-28T14:07:23.602Z,14.78
2019-03-28T14:09:51.547Z,13.58
2019-03-28T14:12:19.581Z,15.10
2019-03-28T14:14:47.616Z,12.70
2019-03-28T14:17:15.630Z,13.95
2019-03-28T14:19:43.587Z,10.80
2019-03-28T14:22:11.672Z,10.50
2019-03-28T14:24:39.637Z,11.53
2019-03-28T14:27:07.613Z,12.10
2019-03-28T14:29:35.618Z,11.18
2019-03-28T14:32:03.589Z,9.80
2019-03-28T14:34:31.548Z,10.10
2019-03-28T14:36:59.561Z,12.33
2019-03-28T14:39:27.494Z,13.35
2019-03-28T14:41:55.480Z,13.93
2019-03-28T14:44:23.468Z,13.60
2019-03-28T14:46:51.421Z,13.75
2019-03-28T14:49:19.490Z,14.00
2019-03-28T14:51:47.841Z,14.03
2019-03-28T14:54:15.732Z,14.78
2019-03-28T14:56:43.799Z,14.30
2019-03-28T14:59:12.697Z,14.38
2019-03-28T15:01:40.662Z,12.20
2019-03-28T15:04:08.648Z,12.07
2019-03-28T15:06:36.662Z,9.88
2019-03-28T15:09:07.204Z,10.68
2019-03-28T15:11:35.178Z,9.73
2019-03-28T15:14:03.165Z,9.88
2019-03-28T15:16:31.126Z,9.85
2019-03-28T15:18:59.076Z,10.15
2019-03-28T15:21:27.077Z,10.75
2019-03-28T15:23:55.029Z,10.78
2019-03-28T15:26:23.000Z,10.50
2019-03-28T15:28:50.985Z,11.10
2019-03-28T15:31:19.108Z,10.03
2019-03-28T15:33:47.298Z,10.00
2019-03-28T15:36:15.294Z,10.30
2019-03-28T15:38:43.279Z,10.45
2019-03-28T15:41:11.253Z,10.50
2019-03-28T15:43:39.343Z,10.93
2019-03-28T15:46:07.305Z,12.30
2019-03-28T15:48:35.677Z,10.72
2019-03-28T15:51:03.897Z,10.58
2019-03-28T15:53:31.966Z,9.80
2019-03-28T15:55:59.950Z,10.18
2019-03-28T15:58:27.947Z,11.00
2019-03-28T16:00:55.899Z,10.23
2019-03-28T16:03:23.871Z,10.70
2019-03-28T16:05:58.095Z,12.28
2019-03-28T16:08:21.632Z,11.95
2019-03-28T16:10:49.627Z,12.03
2019-03-28T16:13:17.799Z,13.08
2019-03-28T16:15:45.782Z,11.53
2019-03-28T16:18:13.815Z,12.07
2019-03-28T16:20:41.941Z,10.80
2019-03-28T16:23:10.042Z,10.30
2019-03-28T16:25:38.026Z,10.53
2019-03-28T16:28:06.031Z,9.73
2019-03-28T16:30:35.959Z,9.53
2019-03-28T16:33:03.952Z,8.60
2019-03-28T16:35:32.029Z,8.65
2019-03-28T16:38:00.029Z,8.63
2019-03-28T16:40:27.993Z,8.53
2019-03-28T16:42:55.950Z,8.55
2019-03-28T16:45:23.956Z,8.08
2019-03-28T16:47:51.914Z,8.48
2019-03-28T16:50:19.920Z,8.23
2019-03-28T16:52:48.284Z,8.08
2019-03-28T16:55:25.874Z,8.78
2019-03-28T16:57:46.060Z,8.33
2019-03-28T17:00:14.868Z,8.60
2019-03-28T17:02:43.050Z,7.67
2019-03-28T17:05:11.008Z,7.75
2019-03-28T17:07:39.100Z,7.65
2019-03-28T17:10:07.940Z,8.58
2019-03-28T17:12:35.955Z,8.45
2019-03-28T17:15:05.310Z,9.20
2019-03-28T17:17:33.400Z,8.58
2019-03-28T17:20:01.386Z,8.35
2019-03-28T17:22:29.351Z,8.43
2019-03-28T17:24:57.431Z,7.60
2019-03-28T17:27:25.401Z,8.35
2019-03-28T17:29:53.398Z,8.25
2019-03-28T17:32:21.365Z,8.28
2019-03-28T17:34:49.348Z,7.70
2019-03-28T17:37:17.421Z,7.78
2019-03-28T17:39:45.389Z,8.20
2019-03-28T17:42:13.381Z,8.28
2019-03-28T17:44:41.367Z,7.50
2019-03-28T17:47:10.630Z,8.18
2019-03-28T17:49:39.014Z,8.03
2019-03-28T17:52:06.969Z,8.35
2019-03-28T17:54:34.940Z,8.50
2019-03-28T17:57:03.012Z,7.95
2019-03-28T17:59:31.113Z,7.80
2019-03-28T18:01:59.192Z,8.05
2019-03-28T18:04:27.184Z,8.45
2019-03-28T18:06:55.209Z,8.45
2019-03-28T18:09:23.401Z,8.83
2019-03-28T18:11:51.345Z,8.33
2019-03-28T18:14:19.304Z,9.10
2019-03-28T18:16:47.339Z,8.65
2019-03-28T18:19:15.352Z,9.25
2019-03-28T18:21:43.292Z,8.60
2019-03-28T18:24:11.276Z,9.20
2019-03-28T18:26:39.247Z,9.43
2019-03-28T18:29:07.316Z,9.73
2019-03-28T18:31:49.381Z,9.63
2019-03-28T18:34:05.140Z,9.40
2019-03-28T18:36:33.105Z,10.05
2019-03-28T18:39:01.087Z,9.95
2019-03-28T18:41:29.034Z,10.50
2019-03-28T18:43:56.999Z,9.83
2019-03-28T18:46:26.129Z,11.33
2019-03-28T18:48:54.352Z,10.63
2019-03-28T18:51:22.525Z,11.28
2019-03-28T18:53:50.532Z,12.03
2019-03-28T18:56:18.556Z,11.75
2019-03-28T18:58:46.525Z,11.25
2019-03-28T19:01:14.532Z,12.03
2019-03-28T19:03:42.511Z,11.60
2019-03-28T19:06:10.485Z,11.73
2019-03-28T19:08:38.498Z,12.63
2019-03-28T19:11:06.472Z,11.60
2019-03-28T19:13:34.469Z,11.97
2019-03-28T19:16:02.667Z,12.75
2019-03-28T19:18:30.672Z,16.30
2019-03-28T19:20:58.725Z,35.35
2019-03-28T19:23:26.812Z,45.10
2019-03-28T19:25:54.902Z,40.67
2019-03-28T19:28:28.760Z,27.95
2019-03-28T19:30:52.693Z,21.77
2019-03-28T19:33:20.662Z,18.82
2019-03-28T19:35:49.549Z,17.25
2019-03-28T19:38:18.009Z,14.75
2019-03-28T19:40:45.954Z,13.83
2019-03-28T19:43:20.331Z,13.68
2019-03-28T19:45:43.716Z,14.30
2019-03-28T19:48:11.798Z,13.98
2019-03-28T19:50:39.808Z,13.55
2019-03-28T19:53:07.813Z,13.60
2019-03-28T19:55:35.805Z,14.50
2019-03-28T19:58:05.003Z,14.50
2019-03-28T20:00:33.042Z,14.93
2019-03-28T20:03:02.376Z,14.20
2019-03-28T20:05:30.745Z,14.13
2019-03-28T20:07:58.730Z,14.83
2019-03-28T20:10:26.797Z,15.93
2019-03-28T20:12:54.813Z,15.15
2019-03-28T20:15:22.781Z,16.12
2019-03-28T20:17:50.860Z,17.07
2019-03-28T20:20:19.021Z,17.42
2019-03-28T20:22:46.992Z,17.23
2019-03-28T20:25:15.060Z,18.20
2019-03-28T20:27:43.128Z,17.05
2019-03-28T20:30:11.837Z,17.35
2019-03-28T20:32:39.760Z,21.68
2019-03-28T20:35:10.561Z,22.13
2019-03-28T20:37:37.930Z,20.65
2019-03-28T20:40:07.698Z,17.87
2019-03-28T20:42:35.692Z,18.92
2019-03-28T20:45:04.371Z,17.82
2019-03-28T20:47:32.362Z,17.62
2019-03-28T20:50:01.493Z,17.35
2019-03-28T20:52:30.016Z,18.10
2019-03-28T20:54:59.587Z,17.12
2019-03-28T20:57:27.868Z,16.80
2019-03-28T20:59:55.969Z,16.65
2019-03-28T21:02:24.196Z,17.12
2019-03-28T21:04:52.314Z,17.60
2019-03-28T21:07:20.640Z,17.67
2019-03-28T21:09:48.702Z,17.52
2019-03-28T21:12:17.593Z,17.65
2019-03-28T21:14:45.752Z,17.50
2019-03-28T21:17:13.741Z,17.95
2019-03-28T21:19:41.800Z,17.85
2019-03-28T21:22:09.812Z,18.62
2019-03-28T21:24:37.813Z,18.12
2019-03-28T21:27:07.489Z,18.17
2019-03-28T21:29:48.016Z,18.67
2019-03-28T21:32:05.352Z,19.23
2019-03-28T21:34:33.717Z,19.32
2019-03-28T21:37:01.712Z,18.30
2019-03-28T21:39:29.600Z,18.70
2019-03-28T21:41:57.683Z,17.75
2019-03-28T21:44:25.661Z,18.65
2019-03-28T21:46:53.632Z,18.90
2019-03-28T21:49:21.589Z,17.85
2019-03-28T21:51:49.575Z,18.50
2019-03-28T21:54:17.596Z,19.23
2019-03-28T21:56:45.562Z,19.30
2019-03-28T21:59:13.644Z,17.82
2019-03-28T22:01:41.606Z,18.17
2019-03-28T22:04:09.575Z,17.92
2019-03-28T22:06:42.744Z,17.52
2019-03-28T22:09:07.336Z,18.05
2019-03-28T22:11:35.396Z,17.55
2019-03-28T22:14:03.487Z,18.32
2019-03-28T22:16:31.450Z,18.25
2019-03-28T22:18:59.897Z,18.05
2019-03-28T22:21:27.923Z,19.40
2019-03-28T22:23:55.806Z,18.92
2019-03-28T22:26:23.785Z,19.15
2019-03-28T22:28:52.572Z,18.62
2019-03-28T22:31:20.498Z,18.00
2019-03-28T22:33:48.696Z,19.07
2019-03-28T22:36:17.921Z,19.07
2019-03-28T22:38:46.855Z,18.45
2019-03-28T22:41:14.999Z,18.50
2019-03-28T22:43:43.034Z,19.80
2019-03-28T22:46:10.999Z,19.45
2019-03-28T22:48:39.333Z,19.05
2019-03-28T22:51:07.869Z,18.10
2019-03-28T22:53:35.847Z,19.40
2019-03-28T22:56:03.834Z,19.87
2019-03-28T22:58:31.898Z,18.90
2019-03-28T23:01:00.060Z,20.37
2019-03-28T23:03:28.023Z,20.55
2019-03-28T23:05:56.811Z,20.25
2019-03-28T23:08:24.864Z,19.70
2019-03-28T23:10:52.843Z,20.02
2019-03-28T23:13:20.836Z,19.60
2019-03-28T23:15:48.813Z,20.17
2019-03-28T23:18:16.908Z,20.02
2019-03-28T23:20:44.884Z,20.60
2019-03-28T23:23:12.949Z,19.55
2019-03-28T23:25:40.944Z,18.52
2019-03-28T23:28:08.908Z,20.02
2019-03-28T23:30:36.875Z,19.73
2019-03-28T23:33:05.082Z,20.02
2019-03-28T23:35:33.274Z,21.07
2019-03-28T23:38:01.264Z,19.95
2019-03-28T23:40:29.979Z,20.68
2019-03-28T23:42:58.304Z,22.00
2019-03-28T23:45:26.261Z,20.40
2019-03-28T23:47:54.250Z,20.23
2019-03-28T23:50:22.314Z,20.85
2019-03-28T23:52:50.380Z,20.40
2019-03-28T23:55:18.961Z,21.37
2019-03-28T23:57:47.128Z,21.37
